sensor_id;sensor_type;location;lat;lon;timestamp;pressure;altitude;pressure_sealevel;temperature;humidity
51928;BME280;37953;52.806;18.270;2022-07-05T00:02:26;100878.19;;;20.83;100.00
51928;BME280;37953;52.806;18.270;2022-07-05T00:04:52;100879.84;;;20.86;100.00
51928;BME280;37953;52.806;18.270;2022-07-05T00:07:18;100880.00;;;20.81;100.00
51928;BME280;37953;52.806;18.270;2022-07-05T00:09:45;100879.28;;;20.76;100.00
51928;BME280;37953;52.806;18.270;2022-07-05T00:12:12;100881.09;;;20.74;100.00
51928;BME280;37953;52.806;18.270;2022-07-05T00:14:43;100891.75;;;20.72;100.00
51928;BME280;37953;52.806;18.270;2022-07-05T00:17:10;100878.75;;;20.66;100.00
51928;BME280;37953;52.806;18.270;2022-07-05T00:19:37;100874.44;;;20.64;100.00
51928;BME280;37953;52.806;18.270;2022-07-05T00:22:09;100871.84;;;20.62;100.00
51928;BME280;37953;52.806;18.270;2022-07-05T00:24:35;100871.06;;;20.57;100.00
51928;BME280;37953;52.806;18.270;2022-07-05T00:27:02;100878.13;;;20.57;100.00
51928;BME280;37953;52.806;18.270;2022-07-05T00:29:29;100863.44;;;20.48;100.00
51928;BME280;37953;52.806;18.270;2022-07-05T00:31:55;100873.91;;;20.51;100.00
51928;BME280;37953;52.806;18.270;2022-07-05T00:34:21;100868.03;;;20.43;100.00
51928;BME280;37953;52.806;18.270;2022-07-05T00:36:47;100869.66;;;20.47;100.00
51928;BME280;37953;52.806;18.270;2022-07-05T00:39:14;100867.88;;;20.47;100.00
51928;BME280;37953;52.806;18.270;2022-07-05T00:41:53;100853.06;;;20.43;100.00
51928;BME280;37953;52.806;18.270;2022-07-05T00:44:29;100859.19;;;20.44;100.00
51928;BME280;37953;52.806;18.270;2022-07-05T00:46:56;100851.56;;;20.34;100.00
51928;BME280;37953;52.806;18.270;2022-07-05T00:49:22;100868.09;;;20.40;100.00
51928;BME280;37953;52.806;18.270;2022-07-05T00:51:48;100855.09;;;20.33;100.00
51928;BME280;37953;52.806;18.270;2022-07-05T00:54:14;100840.34;;;20.28;100.00
51928;BME280;37953;52.806;18.270;2022-07-05T00:56:40;100855.09;;;20.33;100.00
51928;BME280;37953;52.806;18.270;2022-07-05T00:59:06;100848.19;;;20.29;100.00
51928;BME280;37953;52.806;18.270;2022-07-05T01:01:33;100857.00;;;20.30;100.00
51928;BME280;37953;52.806;18.270;2022-07-05T01:03:59;100852.59;;;20.30;100.00
51928;BME280;37953;52.806;18.270;2022-07-05T01:06:25;100840.53;;;20.22;100.00
51928;BME280;37953;52.806;18.270;2022-07-05T01:08:52;100834.53;;;20.17;100.00
51928;BME280;37953;52.806;18.270;2022-07-05T01:11:18;100847.69;;;20.18;100.00
51928;BME280;37953;52.806;18.270;2022-07-05T01:13:47;100852.84;;;20.21;100.00
51928;BME280;37953;52.806;18.270;2022-07-05T01:16:13;100851.25;;;20.17;100.00
51928;BME280;37953;52.806;18.270;2022-07-05T01:18:39;100860.88;;;20.18;100.00
51928;BME280;37953;52.806;18.270;2022-07-05T01:21:05;100861.78;;;20.17;100.00
51928;BME280;37953;52.806;18.270;2022-07-05T01:23:32;100860.91;;;20.17;100.00
51928;BME280;37953;52.806;18.270;2022-07-05T01:26:00;100863.63;;;20.15;100.00
51928;BME280;37953;52.806;18.270;2022-07-05T01:28:28;100856.72;;;20.11;100.00
51928;BME280;37953;52.806;18.270;2022-07-05T01:30:54;100856.75;;;20.09;100.00
51928;BME280;37953;52.806;18.270;2022-07-05T01:33:27;100864.63;;;20.11;100.00
51928;BME280;37953;52.806;18.270;2022-07-05T01:35:57;100858.72;;;20.03;100.00
51928;BME280;37953;52.806;18.270;2022-07-05T01:38:24;100870.13;;;20.03;100.00
51928;BME280;37953;52.806;18.270;2022-07-05T01:40:56;100867.47;;;20.03;100.00
51928;BME280;37953;52.806;18.270;2022-07-05T01:43:23;100877.16;;;20.03;100.00
51928;BME280;37953;52.806;18.270;2022-07-05T01:45:49;100871.94;;;20.01;100.00
51928;BME280;37953;52.806;18.270;2022-07-05T01:48:19;100881.63;;;20.01;100.00
51928;BME280;37953;52.806;18.270;2022-07-05T01:50:49;100884.25;;;20.01;100.00
51928;BME280;37953;52.806;18.270;2022-07-05T01:53:19;100880.84;;;19.97;100.00
51928;BME280;37953;52.806;18.270;2022-07-05T01:55:46;100876.53;;;19.95;100.00
51928;BME280;37953;52.806;18.270;2022-07-05T01:58:18;100876.53;;;19.95;100.00
51928;BME280;37953;52.806;18.270;2022-07-05T02:00:46;100872.25;;;19.90;100.00
51928;BME280;37953;52.806;18.270;2022-07-05T02:03:13;100882.88;;;19.87;100.00
51928;BME280;37953;52.806;18.270;2022-07-05T02:05:40;100873.47;;;19.79;100.00
51928;BME280;37953;52.806;18.270;2022-07-05T02:08:10;100873.44;;;19.80;100.00
51928;BME280;37953;52.806;18.270;2022-07-05T02:10:37;100883.19;;;19.77;100.00
51928;BME280;37953;52.806;18.270;2022-07-05T02:13:09;100876.28;;;19.72;100.00
51928;BME280;37953;52.806;18.270;2022-07-05T02:15:38;100878.97;;;19.69;100.00
51928;BME280;37953;52.806;18.270;2022-07-05T02:18:05;100881.53;;;19.72;100.00
51928;BME280;37953;52.806;18.270;2022-07-05T02:20:32;100881.50;;;19.74;100.00
51928;BME280;37953;52.806;18.270;2022-07-05T02:22:59;100881.50;;;19.74;100.00
51928;BME280;37953;52.806;18.270;2022-07-05T02:25:25;100877.97;;;19.75;100.00
51928;BME280;37953;52.806;18.270;2022-07-05T02:27:54;100879.69;;;19.76;100.00
51928;BME280;37953;52.806;18.270;2022-07-05T02:30:21;100878.81;;;19.77;100.00
51928;BME280;37953;52.806;18.270;2022-07-05T02:32:47;100876.25;;;19.74;100.00
51928;BME280;37953;52.806;18.270;2022-07-05T02:35:14;100862.34;;;19.67;100.00
51928;BME280;37953;52.806;18.270;2022-07-05T02:37:40;100882.47;;;19.71;100.00
51928;BME280;37953;52.806;18.270;2022-07-05T02:40:08;100874.63;;;19.68;100.00
51928;BME280;37953;52.806;18.270;2022-07-05T02:42:34;100877.34;;;19.65;100.00
51928;BME280;37953;52.806;18.270;2022-07-05T02:45:00;100873.91;;;19.62;100.00
51928;BME280;37953;52.806;18.270;2022-07-05T02:47:29;100881.75;;;19.65;100.00
51928;BME280;37953;52.806;18.270;2022-07-05T02:50:18;100882.59;;;19.65;100.00
51928;BME280;37953;52.806;18.270;2022-07-05T02:52:43;100880.06;;;19.62;100.00
51928;BME280;37953;52.806;18.270;2022-07-05T02:55:09;100880.09;;;19.61;100.00
51928;BME280;37953;52.806;18.270;2022-07-05T02:57:38;100874.84;;;19.61;100.00
51928;BME280;37953;52.806;18.270;2022-07-05T03:00:05;100875.72;;;19.60;100.00
51928;BME280;37953;52.806;18.270;2022-07-05T03:02:31;100881.88;;;19.60;100.00
51928;BME280;37953;52.806;18.270;2022-07-05T03:04:57;100876.69;;;19.57;100.00
51928;BME280;37953;52.806;18.270;2022-07-05T03:07:23;100885.50;;;19.56;100.00
51928;BME280;37953;52.806;18.270;2022-07-05T03:09:49;100883.81;;;19.53;100.00
51928;BME280;37953;52.806;18.270;2022-07-05T03:12:15;100879.47;;;19.52;100.00
51928;BME280;37953;52.806;18.270;2022-07-05T03:14:41;100869.03;;;19.48;100.00
51928;BME280;37953;52.806;18.270;2022-07-05T03:17:07;100877.75;;;19.51;100.00
51928;BME280;37953;52.806;18.270;2022-07-05T03:19:33;100869.84;;;19.51;100.00
51928;BME280;37953;52.806;18.270;2022-07-05T03:22:00;100878.53;;;19.53;100.00
51928;BME280;37953;52.806;18.270;2022-07-05T03:24:25;100878.59;;;19.52;100.00
51928;BME280;37953;52.806;18.270;2022-07-05T03:26:51;100877.75;;;19.51;100.00
51928;BME280;37953;52.806;18.270;2022-07-05T03:29:17;100868.06;;;19.52;100.00
51928;BME280;37953;52.806;18.270;2022-07-05T03:31:43;100878.53;;;19.53;100.00
51928;BME280;37953;52.806;18.270;2022-07-05T03:34:09;100881.38;;;19.47;100.00
51928;BME280;37953;52.806;18.270;2022-07-05T03:36:35;100890.03;;;19.51;100.00
51928;BME280;37953;52.806;18.270;2022-07-05T03:39:01;100897.09;;;19.49;100.00
51928;BME280;37953;52.806;18.270;2022-07-05T03:41:27;100895.38;;;19.49;100.00
51928;BME280;37953;52.806;18.270;2022-07-05T03:43:53;100894.47;;;19.49;100.00
51928;BME280;37953;52.806;18.270;2022-07-05T03:46:19;100897.09;;;19.49;100.00
51928;BME280;37953;52.806;18.270;2022-07-05T03:48:45;100897.06;;;19.50;100.00
51928;BME280;37953;52.806;18.270;2022-07-05T03:51:11;100892.66;;;19.51;100.00
51928;BME280;37953;52.806;18.270;2022-07-05T03:53:37;100901.47;;;19.51;100.00
51928;BME280;37953;52.806;18.270;2022-07-05T03:56:03;100899.72;;;19.50;100.00
51928;BME280;37953;52.806;18.270;2022-07-05T03:58:29;100904.97;;;19.50;100.00
51928;BME280;37953;52.806;18.270;2022-07-05T04:00:55;100904.16;;;19.48;100.00
51928;BME280;37953;52.806;18.270;2022-07-05T04:03:21;100902.44;;;19.47;100.00
51928;BME280;37953;52.806;18.270;2022-07-05T04:05:47;100907.72;;;19.47;100.00
51928;BME280;37953;52.806;18.270;2022-07-05T04:08:13;100918.19;;;19.49;100.00
51928;BME280;37953;52.806;18.270;2022-07-05T04:10:39;100917.38;;;19.47;100.00
51928;BME280;37953;52.806;18.270;2022-07-05T04:13:05;100925.22;;;19.50;100.00
51928;BME280;37953;52.806;18.270;2022-07-05T04:15:31;100918.16;;;19.50;100.00
51928;BME280;37953;52.806;18.270;2022-07-05T04:17:57;100919.00;;;19.51;100.00
51928;BME280;37953;52.806;18.270;2022-07-05T04:20:23;100922.53;;;19.51;100.00
51928;BME280;37953;52.806;18.270;2022-07-05T04:22:52;100917.28;;;19.51;100.00
51928;BME280;37953;52.806;18.270;2022-07-05T04:25:18;100918.06;;;19.53;100.00
51928;BME280;37953;52.806;18.270;2022-07-05T04:27:52;100903.06;;;19.56;100.00
51928;BME280;37953;52.806;18.270;2022-07-05T04:30:21;100911.81;;;19.58;100.00
51928;BME280;37953;52.806;18.270;2022-07-05T04:32:55;100906.47;;;19.61;100.00
51928;BME280;37953;52.806;18.270;2022-07-05T04:35:21;100917.88;;;19.61;100.00
51928;BME280;37953;52.806;18.270;2022-07-05T04:37:47;100912.59;;;19.61;100.00
51928;BME280;37953;52.806;18.270;2022-07-05T04:40:14;100921.41;;;19.60;100.00
51928;BME280;37953;52.806;18.270;2022-07-05T04:42:40;100935.41;;;19.62;100.00
51928;BME280;37953;52.806;18.270;2022-07-05T04:45:06;100931.00;;;19.63;100.00
51928;BME280;37953;52.806;18.270;2022-07-05T04:47:33;100929.25;;;19.62;100.00
51928;BME280;37953;52.806;18.270;2022-07-05T04:50:04;100933.66;;;19.63;100.00
51928;BME280;37953;52.806;18.270;2022-07-05T04:52:30;100923.97;;;19.63;100.00
51928;BME280;37953;52.806;18.270;2022-07-05T04:54:57;100922.25;;;19.62;100.00
51928;BME280;37953;52.806;18.270;2022-07-05T04:57:23;100933.66;;;19.63;100.00
51928;BME280;37953;52.806;18.270;2022-07-05T04:59:49;100931.00;;;19.63;100.00
51928;BME280;37953;52.806;18.270;2022-07-05T05:02:15;100931.91;;;19.62;100.00
51928;BME280;37953;52.806;18.270;2022-07-05T05:04:41;100924.91;;;19.61;100.00
51928;BME280;37953;52.806;18.270;2022-07-05T05:07:07;100923.09;;;19.63;100.00
51928;BME280;37953;52.806;18.270;2022-07-05T05:09:33;100930.16;;;19.62;100.00
51928;BME280;37953;52.806;18.270;2022-07-05T05:11:59;100933.59;;;19.64;100.00
51928;BME280;37953;52.806;18.270;2022-07-05T05:14:25;100944.06;;;19.67;100.00
51928;BME280;37953;52.806;18.270;2022-07-05T05:16:51;100936.97;;;19.69;100.00
51928;BME280;37953;52.806;18.270;2022-07-05T05:19:16;100944.81;;;19.72;100.00
51928;BME280;37953;52.806;18.270;2022-07-05T05:21:42;100946.47;;;19.77;100.00
51928;BME280;37953;52.806;18.270;2022-07-05T05:24:08;100953.34;;;19.82;100.00
51928;BME280;37953;52.806;18.270;2022-07-05T05:26:34;100957.63;;;19.86;100.00
51928;BME280;37953;52.806;18.270;2022-07-05T05:29:00;100956.69;;;19.87;100.00
51928;BME280;37953;52.806;18.270;2022-07-05T05:31:26;100959.22;;;19.92;100.00
51928;BME280;37953;52.806;18.270;2022-07-05T05:33:53;100954.69;;;19.97;100.00
51928;BME280;37953;52.806;18.270;2022-07-05T05:36:19;100953.66;;;20.03;100.00
51928;BME280;37953;52.806;18.270;2022-07-05T05:38:45;100953.41;;;20.10;100.00
51928;BME280;37953;52.806;18.270;2022-07-05T05:41:11;100954.13;;;20.17;100.00
51928;BME280;37953;52.806;18.270;2022-07-05T05:43:37;100954.88;;;20.21;100.00
51928;BME280;37953;52.806;18.270;2022-07-05T05:46:03;100951.28;;;20.23;100.00
51928;BME280;37953;52.806;18.270;2022-07-05T05:48:29;100957.31;;;20.28;100.00
51928;BME280;37953;52.806;18.270;2022-07-05T05:50:55;100963.41;;;20.30;100.00
51928;BME280;37953;52.806;18.270;2022-07-05T05:53:22;100965.03;;;20.34;100.00
51928;BME280;37953;52.806;18.270;2022-07-05T05:55:48;100964.06;;;20.37;100.00
51928;BME280;37953;52.806;18.270;2022-07-05T05:58:22;100976.22;;;20.43;100.00
51928;BME280;37953;52.806;18.270;2022-07-05T06:00:52;100976.97;;;20.46;100.00
51928;BME280;37953;52.806;18.270;2022-07-05T06:03:20;100970.69;;;20.50;100.00
51928;BME280;37953;52.806;18.270;2022-07-05T06:05:46;100976.75;;;20.54;100.00
51928;BME280;37953;52.806;18.270;2022-07-05T06:08:13;100968.72;;;20.57;100.00
51928;BME280;37953;52.806;18.270;2022-07-05T06:10:40;100971.31;;;20.60;100.00
51928;BME280;37953;52.806;18.270;2022-07-05T06:13:09;100975.59;;;20.64;100.00
51928;BME280;37953;52.806;18.270;2022-07-05T06:15:36;100971.13;;;20.66;100.00
51928;BME280;37953;52.806;18.270;2022-07-05T06:18:02;100974.53;;;20.70;100.00
51928;BME280;37953;52.806;18.270;2022-07-05T06:20:32;100984.03;;;20.76;100.00
51928;BME280;37953;52.806;18.270;2022-07-05T06:22:59;100975.16;;;20.78;100.00
51928;BME280;37953;52.806;18.270;2022-07-05T06:25:26;100980.34;;;20.81;100.00
51928;BME280;37953;52.806;18.270;2022-07-05T06:28:03;100981.09;;;20.85;100.00
51928;BME280;37953;52.806;18.270;2022-07-05T06:30:33;100978.53;;;20.83;100.00
51928;BME280;37953;52.806;18.270;2022-07-05T06:32:59;100975.03;;;20.83;100.00
51928;BME280;37953;52.806;18.270;2022-07-05T06:35:26;100977.69;;;20.83;100.00
51928;BME280;37953;52.806;18.270;2022-07-05T06:40:24;100976.63;;;20.87;100.00
51928;BME280;37953;52.806;18.270;2022-07-05T06:42:52;100976.63;;;20.87;100.00
51928;BME280;37953;52.806;18.270;2022-07-05T06:45:19;100978.38;;;20.88;100.00
51928;BME280;37953;52.806;18.270;2022-07-05T06:47:57;100984.38;;;20.93;100.00
51928;BME280;37953;52.806;18.270;2022-07-05T06:50:24;100973.75;;;20.94;100.00
51928;BME280;37953;52.806;18.270;2022-07-05T06:55:19;100986.78;;;21.01;100.00
51928;BME280;37953;52.806;18.270;2022-07-05T06:57:45;100990.22;;;21.03;100.00
51928;BME280;37953;52.806;18.270;2022-07-05T07:00:11;100987.59;;;21.03;100.00
51928;BME280;37953;52.806;18.270;2022-07-05T07:02:37;100997.09;;;21.08;100.00
51928;BME280;37953;52.806;18.270;2022-07-05T07:05:04;100994.38;;;21.10;100.00
51928;BME280;37953;52.806;18.270;2022-07-05T07:07:33;100996.94;;;21.13;100.00
51928;BME280;37953;52.806;18.270;2022-07-05T07:10:18;100996.78;;;21.18;100.00
51928;BME280;37953;52.806;18.270;2022-07-05T07:12:44;100990.56;;;21.19;100.00
51928;BME280;37953;52.806;18.270;2022-07-05T07:15:10;100990.56;;;21.19;100.00
51928;BME280;37953;52.806;18.270;2022-07-05T07:17:36;100986.09;;;21.21;100.00
51928;BME280;37953;52.806;18.270;2022-07-05T07:20:03;100986.91;;;21.23;100.00
51928;BME280;37953;52.806;18.270;2022-07-05T07:22:29;100993.91;;;21.25;100.00
51928;BME280;37953;52.806;18.270;2022-07-05T07:24:55;100995.53;;;21.29;100.00
51928;BME280;37953;52.806;18.270;2022-07-05T07:27:21;100986.69;;;21.30;100.00
51928;BME280;37953;52.806;18.270;2022-07-05T07:29:47;100991.91;;;21.32;100.00
51928;BME280;37953;52.806;18.270;2022-07-05T07:32:13;100993.59;;;21.34;100.00
51928;BME280;37953;52.806;18.270;2022-07-05T07:34:39;101001.56;;;21.33;100.00
51928;BME280;37953;52.806;18.270;2022-07-05T07:37:06;101000.59;;;21.35;100.00
51928;BME280;37953;52.806;18.270;2022-07-05T07:39:38;100999.69;;;21.37;100.00
51928;BME280;37953;52.806;18.270;2022-07-05T07:42:11;100993.38;;;21.41;100.00
51928;BME280;37953;52.806;18.270;2022-07-05T07:44:37;100999.50;;;21.43;100.00
51928;BME280;37953;52.806;18.270;2022-07-05T07:47:03;100994.09;;;21.46;100.00
51928;BME280;37953;52.806;18.270;2022-07-05T07:49:29;100989.72;;;21.46;100.00
51928;BME280;37953;52.806;18.270;2022-07-05T07:51:55;100987.88;;;21.48;100.00
51928;BME280;37953;52.806;18.270;2022-07-05T07:54:21;100992.28;;;21.48;95.20
51928;BME280;37953;52.806;18.270;2022-07-05T07:56:47;100985.22;;;21.48;92.56
51928;BME280;37953;52.806;18.270;2022-07-05T07:59:13;100979.78;;;21.53;94.99
51928;BME280;37953;52.806;18.270;2022-07-05T08:01:39;100980.47;;;21.58;96.00
51928;BME280;37953;52.806;18.270;2022-07-05T08:04:05;100982.94;;;21.63;90.76
51928;BME280;37953;52.806;18.270;2022-07-05T08:06:31;100976.63;;;21.67;92.94
51928;BME280;37953;52.806;18.270;2022-07-05T08:08:57;100970.38;;;21.69;91.19
51928;BME280;37953;52.806;18.270;2022-07-05T08:11:23;100972.94;;;21.72;92.60
51928;BME280;37953;52.806;18.270;2022-07-05T08:13:49;100976.22;;;21.79;92.57
51928;BME280;37953;52.806;18.270;2022-07-05T08:16:15;100972.53;;;21.83;93.27
51928;BME280;37953;52.806;18.270;2022-07-05T08:18:42;100973.22;;;21.88;94.54
51928;BME280;37953;52.806;18.270;2022-07-05T08:21:29;100975.72;;;21.93;93.50
51928;BME280;37953;52.806;18.270;2022-07-05T08:23:59;100977.47;;;21.92;87.04
51928;BME280;37953;52.806;18.270;2022-07-05T08:26:26;100976.59;;;21.93;88.79
51928;BME280;37953;52.806;18.270;2022-07-05T08:28:52;100983.50;;;21.98;90.80
51928;BME280;37953;52.806;18.270;2022-07-05T08:31:19;100985.09;;;22.02;92.61
51928;BME280;37953;52.806;18.270;2022-07-05T08:33:46;100984.06;;;22.06;91.96
51928;BME280;37953;52.806;18.270;2022-07-05T08:36:13;100983.03;;;22.10;91.59
51928;BME280;37953;52.806;18.270;2022-07-05T08:38:39;100988.22;;;22.13;91.56
51928;BME280;37953;52.806;18.270;2022-07-05T08:41:07;100978.38;;;22.16;92.34
51928;BME280;37953;52.806;18.270;2022-07-05T08:43:35;100983.50;;;22.21;90.48
51928;BME280;37953;52.806;18.270;2022-07-05T08:46:11;100977.16;;;22.27;90.77
51928;BME280;37953;52.806;18.270;2022-07-05T08:48:44;100979.72;;;22.28;85.75
51928;BME280;37953;52.806;18.270;2022-07-05T08:51:14;100984.06;;;22.31;84.31
51928;BME280;37953;52.806;18.270;2022-07-05T08:53:43;100983.97;;;22.32;83.41
51928;BME280;37953;52.806;18.270;2022-07-05T08:58:42;100980.19;;;22.40;87.37
51928;BME280;37953;52.806;18.270;2022-07-05T09:01:10;100976.56;;;22.42;85.84
51928;BME280;37953;52.806;18.270;2022-07-05T09:03:51;100979.88;;;22.47;86.33
51928;BME280;37953;52.806;18.270;2022-07-05T09:06:19;100979.81;;;22.49;83.34
51928;BME280;37953;52.806;18.270;2022-07-05T09:08:52;100979.78;;;22.50;82.92
51928;BME280;37953;52.806;18.270;2022-07-05T09:11:24;100979.66;;;22.53;85.29
51928;BME280;37953;52.806;18.270;2022-07-05T09:13:51;100980.44;;;22.55;83.13
51928;BME280;37953;52.806;18.270;2022-07-05T09:16:18;100977.84;;;22.54;77.36
51928;BME280;37953;52.806;18.270;2022-07-05T09:18:48;100976.00;;;22.56;79.25
51928;BME280;37953;52.806;18.270;2022-07-05T09:21:20;100966.16;;;22.60;77.90
51928;BME280;37953;52.806;18.270;2022-07-05T09:24:12;100962.53;;;22.62;75.86
51928;BME280;37953;52.806;18.270;2022-07-05T09:26:43;100973.94;;;22.64;78.32
51928;BME280;37953;52.806;18.270;2022-07-05T09:29:15;100966.84;;;22.65;75.14
51928;BME280;37953;52.806;18.270;2022-07-05T09:31:43;100965.97;;;22.64;74.55
51928;BME280;37953;52.806;18.270;2022-07-05T09:34:15;100957.94;;;22.67;75.18
51928;BME280;37953;52.806;18.270;2022-07-05T09:36:56;100966.69;;;22.69;71.95
51928;BME280;37953;52.806;18.270;2022-07-05T09:42:18;100967.28;;;22.76;71.58
51928;BME280;37953;52.806;18.270;2022-07-05T09:44:51;100963.59;;;22.80;73.11
51928;BME280;37953;52.806;18.270;2022-07-05T09:47:27;100966.06;;;22.85;72.15
51928;BME280;37953;52.806;18.270;2022-07-05T09:49:58;100970.41;;;22.86;69.60
51928;BME280;37953;52.806;18.270;2022-07-05T09:52:39;100966.81;;;22.88;67.92
51928;BME280;37953;52.806;18.270;2022-07-05T09:57:37;100970.69;;;23.02;72.12
51928;BME280;37953;52.806;18.270;2022-07-05T10:00:25;100974.91;;;23.07;71.89
51928;BME280;37953;52.806;18.270;2022-07-05T10:02:53;100972.25;;;23.07;68.59
51928;BME280;37953;52.806;18.270;2022-07-05T10:05:31;100970.31;;;23.11;67.63
51928;BME280;37953;52.806;18.270;2022-07-05T10:07:59;100973.75;;;23.13;68.32
51928;BME280;37953;52.806;18.270;2022-07-05T10:10:30;100973.66;;;23.16;69.32
51928;BME280;37953;52.806;18.270;2022-07-05T10:13:03;100968.16;;;23.21;72.97
51928;BME280;37953;52.806;18.270;2022-07-05T10:15:33;100967.09;;;23.25;74.12
51928;BME280;37953;52.806;18.270;2022-07-05T10:18:03;100969.50;;;23.31;69.66
51928;BME280;37953;52.806;18.270;2022-07-05T10:20:42;100964.72;;;23.39;71.86
51928;BME280;37953;52.806;18.270;2022-07-05T10:23:14;100975.19;;;23.42;65.19
51928;BME280;37953;52.806;18.270;2022-07-05T10:25:43;100974.13;;;23.46;65.00
51928;BME280;37953;52.806;18.270;2022-07-05T10:28:10;100959.03;;;23.48;64.13
51928;BME280;37953;52.806;18.270;2022-07-05T10:30:37;100971.00;;;23.57;64.21
51928;BME280;37953;52.806;18.270;2022-07-05T10:33:06;100959.34;;;23.61;64.30
51928;BME280;37953;52.806;18.270;2022-07-05T10:35:33;100947.88;;;23.61;64.25
51928;BME280;37953;52.806;18.270;2022-07-05T10:38:01;100960.94;;;23.65;63.09
51928;BME280;37953;52.806;18.270;2022-07-05T10:40:30;100953.88;;;23.64;65.03
51928;BME280;37953;52.806;18.270;2022-07-05T10:43:01;100958.28;;;23.65;63.01
51928;BME280;37953;52.806;18.270;2022-07-05T10:45:30;100957.44;;;23.65;64.59
51928;BME280;37953;52.806;18.270;2022-07-05T10:48:25;100949.19;;;23.71;65.53
51928;BME280;37953;52.806;18.270;2022-07-05T10:50:54;100948.25;;;23.72;66.49
51928;BME280;37953;52.806;18.270;2022-07-05T10:53:28;100949.19;;;23.71;64.42
51928;BME280;37953;52.806;18.270;2022-07-05T10:56:14;100943.91;;;23.71;65.62
51928;BME280;37953;52.806;18.270;2022-07-05T10:58:45;100940.34;;;23.70;63.34
51928;BME280;37953;52.806;18.270;2022-07-05T11:06:25;100932.50;;;23.69;62.56
51928;BME280;37953;52.806;18.270;2022-07-05T11:11:26;100925.22;;;23.72;62.58
51928;BME280;37953;52.806;18.270;2022-07-05T11:13:53;100926.19;;;23.71;59.45
51928;BME280;37953;52.806;18.270;2022-07-05T11:16:31;100918.91;;;23.76;62.75
51928;BME280;37953;52.806;18.270;2022-07-05T11:19:16;100918.63;;;23.83;62.09
51928;BME280;37953;52.806;18.270;2022-07-05T11:22:00;100914.97;;;23.85;65.31
51928;BME280;37953;52.806;18.270;2022-07-05T11:24:31;100905.94;;;23.89;64.15
51928;BME280;37953;52.806;18.270;2022-07-05T11:26:59;100908.53;;;23.91;64.59
51928;BME280;37953;52.806;18.270;2022-07-05T11:29:44;100911.13;;;23.92;63.61
51928;BME280;37953;52.806;18.270;2022-07-05T11:32:14;100911.34;;;23.88;60.76
51928;BME280;37953;52.806;18.270;2022-07-05T11:34:51;100912.97;;;23.90;63.08
51928;BME280;37953;52.806;18.270;2022-07-05T11:37:26;100898.75;;;23.91;62.87
51928;BME280;37953;52.806;18.270;2022-07-05T11:42:48;100898.53;;;23.96;61.28
51928;BME280;37953;52.806;18.270;2022-07-05T11:45:14;100899.28;;;24.00;62.64
51928;BME280;37953;52.806;18.270;2022-07-05T11:47:41;100898.41;;;23.99;60.94
51928;BME280;37953;52.806;18.270;2022-07-05T11:50:11;100896.56;;;24.01;62.88
51928;BME280;37953;52.806;18.270;2022-07-05T11:52:38;100884.13;;;24.02;63.28
51928;BME280;37953;52.806;18.270;2022-07-05T11:55:11;100885.94;;;24.01;58.51
51928;BME280;37953;52.806;18.270;2022-07-05T11:57:52;100885.66;;;24.07;63.97
51928;BME280;37953;52.806;18.270;2022-07-05T12:00:33;100880.91;;;24.14;64.95
51928;BME280;37953;52.806;18.270;2022-07-05T12:03:10;100876.09;;;24.22;64.55
51928;BME280;37953;52.806;18.270;2022-07-05T12:05:37;100872.31;;;24.28;63.80
51928;BME280;37953;52.806;18.270;2022-07-05T12:08:03;100870.22;;;24.34;63.41
51928;BME280;37953;52.806;18.270;2022-07-05T12:10:30;100869.81;;;24.42;62.56
51928;BME280;37953;52.806;18.270;2022-07-05T12:13:14;100866.94;;;24.47;61.62
51928;BME280;37953;52.806;18.270;2022-07-05T12:15:40;100872.16;;;24.50;62.70
51928;BME280;37953;52.806;18.270;2022-07-05T12:18:07;100875.44;;;24.55;63.30
51928;BME280;37953;52.806;18.270;2022-07-05T12:20:40;100871.69;;;24.59;63.44
51928;BME280;37953;52.806;18.270;2022-07-05T12:23:07;100871.44;;;24.64;60.96
51928;BME280;37953;52.806;18.270;2022-07-05T12:25:33;100873.13;;;24.66;62.73
51928;BME280;37953;52.806;18.270;2022-07-05T12:28:01;100863.41;;;24.65;58.26
51928;BME280;37953;52.806;18.270;2022-07-05T12:30:30;100861.59;;;24.66;57.79
51928;BME280;37953;52.806;18.270;2022-07-05T12:33:03;100857.97;;;24.68;58.82
51928;BME280;37953;52.806;18.270;2022-07-05T12:38:02;100858.75;;;24.70;60.22
51928;BME280;37953;52.806;18.270;2022-07-05T12:40:28;100856.09;;;24.70;58.91
51928;BME280;37953;52.806;18.270;2022-07-05T12:43:12;100854.13;;;24.74;59.07
51928;BME280;37953;52.806;18.270;2022-07-05T12:45:39;100853.97;;;24.77;60.67
51928;BME280;37953;52.806;18.270;2022-07-05T12:48:07;100855.63;;;24.79;57.57
51928;BME280;37953;52.806;18.270;2022-07-05T12:50:52;100854.53;;;24.84;60.11
51928;BME280;37953;52.806;18.270;2022-07-05T12:53:21;100859.53;;;24.90;62.57
51928;BME280;37953;52.806;18.270;2022-07-05T12:56:08;100852.94;;;24.97;59.54
51928;BME280;37953;52.806;18.270;2022-07-05T12:58:55;100850.84;;;25.04;58.67
51928;BME280;37953;52.806;18.270;2022-07-05T13:01:33;100845.06;;;25.13;59.73
51928;BME280;37953;52.806;18.270;2022-07-05T13:12:13;100838.47;;;25.37;55.59
51928;BME280;37953;52.806;18.270;2022-07-05T13:14:44;100845.00;;;25.48;56.02
51928;BME280;37953;52.806;18.270;2022-07-05T13:17:12;100831.38;;;25.54;54.58